SBSM/RIA METAR and TAF weather

Enter ICAO airport designator
Station Type Date Time Source
SBSM METAR 2021/05/12 02:00 UTC NOAA

SBSM 120200Z 27001KT 9999 FEW015 09/09 Q1021


Station Type Date Time Source
SBSM Decoded METAR 2021/05/12 02:00 UTC NOAA

Santa Maria Aero-Porto , Brazil (SBSM) 29-43S 053-42W
May 11, 2021 - 10:00 PM EDT / 2021.05.12 0200 UTC
Wind: from the W (270 degrees) at 1 MPH (1 KT):0
Visibility: greater than 7 mile(s):0
Sky conditions: mostly clear
Temperature: 48 F (9 C)
Dew Point: 48 F (9 C)
Relative Humidity: 100%
Pressure (altimeter): 30.15 in. Hg (1021 hPa)
ob: SBSM 120200Z 27001KT 9999 FEW015 09/09 Q1021
cycle: 2

Station Type Date Time Source
SBSM TAF 2021/05/12 00:27 UTC NOAA

TAF SBSM 112100Z 1200/1212 14005KT CAVOK TN09/1208Z TX13/1212Z PROB40
TEMPO 1207/1211 0500 FG NSC
RMK PER

Example: see airport list